Briefing drone pour Le bourget-du-lac

Rechercher une autre localisation

Conditions de vol :


Nous sommes le : Dimanche 24 octobre 2021
Il est 00:11 UTC (02:11 LT)

Lever de soleil : 05:38 UTC (07:38 LT)
Coucher de soleil : 17:02 UTC (19:02 LT)


Warning: min(): Array must contain at least one element in /homepages/6/d509196549/htdocs/briefdrone/includes/function/metar/metar.php on line 1265

Météo

L'essentiel des conditions de vol

VIGILANCE MÉTÉO FRANCE - Savoie (73)
Pas de vigilances particulieres
CARTE TEMSI
CARTES DES FRONTS
METAR de LFLB
LFLB 240000Z AUTO 16001KT 7000 1800 // ////// 03/03 Q1027

Date d'émission: 24/10/2021
Heure d'émission: 00:00 UTC
Vent: 160° pour 1 KT (2 km/h)
Visibilité horizontale: 7000/1800 m
Température: 3 °C
Point de rosée: 3 °C
Humidité: 100%
Pression (QNH): 1027 hPa
TAF de LFLB
LFLB 231908Z 2319/2415 CNL= LFLS 231907Z 2319/2415 CNL

Conditions prévues :

Heure d'émission : Bulletin éffectué le 23 à 19:00 UTC
Prévision : Valide du 23 a 19:00 UTC au 24 a 15:00 UTC
Nuages : à 0ft (0 m)
à 0ft (0 m)
à 0ft (0 m)
à 0ft (0 m)
WEBCAM POUR LE BOURGET-DU-LAC

Réglementation

Voler en sécurité

CARTES AERONAUTIQUE 1/500.000
CARTES VAC (LFLB)
SUP AIP




Chargement des AIP...
NOTAM (LE BOURGET-DU-LAC + Terrain à proximité / FIR )




Chargement des NOTAMS...
CONTACT PREFECTURE 73


Avertissement : Les données mises à disposition sont indicatives. Oxygène Drone ne pourra être tenu responsable de dégâts causés aux biens et aux personnes.